Time;durP1;ratioP1;P1;durP2;ratioP2;P2;SDS_P1;SDS_P2;PMS_P1;PMS_P2;Temp;Humidity;BMP_temperature;BMP_pressure;BME280_temperature;BME280_humidity;BME280_pressure;Samples;Min_cycle;Max_cycle;Signal;HPM_P1;HPM_P2
2022/09/29 00:00:00;;;;;;;;;;;7.10;99.90;;;;;;5063452;28;19921;-73
2022/09/29 00:02:28;;;;;;;;;;;7.10;99.90;;;;;;5063967;28;20086;-73
2022/09/29 00:04:54;;;;;;;;;;;7.00;99.90;;;;;;5063610;28;19921;-73
2022/09/29 00:07:21;;;;;;;;;;;7.10;99.90;;;;;;5063880;28;19983;-74
2022/09/29 00:09:47;;;;;;;;;;;7.10;99.90;;;;;;5063821;28;19920;-73
2022/09/29 00:12:14;;;;;;;;;;;7.10;99.90;;;;;;5063914;28;20203;-73
2022/09/29 00:14:41;;;;;;;;;;;7.10;99.90;;;;;;5063396;28;19984;-72
2022/09/29 00:17:07;;;;;;;;;;;7.10;99.90;;;;;;5063970;28;19984;-73
2022/09/29 00:19:35;;;;;;;;;;;7.10;99.90;;;;;;5064093;28;20167;-73
2022/09/29 00:22:02;;;;;;;;;;;7.10;99.90;;;;;;5063903;28;19925;-73
2022/09/29 00:24:29;;;;;;;;;;;7.10;99.90;;;;;;5063882;28;19920;-74
2022/09/29 00:27:07;;;;;;;;;;;7.10;99.90;;;;;;5063232;28;19992;-73
2022/09/29 00:29:34;;;;;;;;;;;7.20;99.90;;;;;;5063941;28;19920;-73
2022/09/29 00:32:01;;;;;;;;;;;7.10;99.90;;;;;;5063575;28;19987;-73
2022/09/29 00:34:27;;;;;;;;;;;7.10;99.90;;;;;;5063712;28;19927;-73
2022/09/29 00:37:29;;;;;;;;;;;7.10;99.90;;;;;;5062510;28;19927;-73
2022/09/29 00:39:57;;;;;;;;;;;7.10;99.90;;;;;;5063893;28;19980;-73
2022/09/29 00:42:23;;;;;;;;;;;7.00;99.90;;;;;;5063684;28;19927;-73
2022/09/29 00:45:02;;;;;;;;;;;7.00;99.90;;;;;;5063452;28;19921;-74
2022/09/29 00:47:29;;;;;;;;;;;7.00;99.90;;;;;;5063763;28;19948;-73
2022/09/29 00:49:58;;;;;;;;;;;7.00;99.90;;;;;;5063544;28;19927;-73
2022/09/29 00:52:26;;;;;;;;;;;6.90;99.90;;;;;;5063705;28;19983;-74
2022/09/29 00:54:56;;;;;;;;;;;7.00;99.90;;;;;;5063370;28;19920;-73
2022/09/29 00:57:26;;;;;;;;;;;7.00;99.90;;;;;;5063311;28;20220;-73
2022/09/29 01:00:05;;;;;;;;;;;7.00;99.90;;;;;;5062774;28;19984;-73
2022/09/29 01:02:33;;;;;;;;;;;7.00;99.90;;;;;;5063184;28;20234;-73
2022/09/29 01:05:00;;;;;;;;;;;7.00;99.90;;;;;;5063304;28;19988;-73
2022/09/29 01:07:27;;;;;;;;;;;6.90;99.90;;;;;;5063640;28;19963;-73
2022/09/29 01:10:06;;;;;;;;;;;6.90;99.90;;;;;;5062680;28;19983;-73
2022/09/29 01:12:33;;;;;;;;;;;6.90;99.90;;;;;;5065646;28;19925;-73
2022/09/29 01:15:00;;;;;;;;;;;7.00;99.90;;;;;;5067273;28;19927;-73
2022/09/29 01:17:27;;;;;;;;;;;7.00;99.90;;;;;;5067369;28;20031;-73
2022/09/29 01:20:02;;;;;;;;;;;6.90;99.90;;;;;;5067220;28;19963;-73
2022/09/29 01:22:40;;;;;;;;;;;6.90;99.90;;;;;;5067174;28;20167;-73
2022/09/29 01:25:14;;;;;;;;;;;6.90;99.90;;;;;;5066799;28;19927;-73
2022/09/29 01:28:10;;;;;;;;;;;6.90;99.90;;;;;;5066714;28;19992;-73
2022/09/29 01:30:43;;;;;;;;;;;6.90;99.90;;;;;;5067042;28;20097;-72
2022/09/29 01:33:17;;;;;;;;;;;6.90;99.90;;;;;;5066868;28;20113;-73
2022/09/29 01:35:48;;;;;;;;;;;6.90;99.90;;;;;;5066380;28;19927;-73
2022/09/29 01:38:22;;;;;;;;;;;6.90;99.90;;;;;;5066434;28;19979;-73
2022/09/29 01:40:54;;;;;;;;;;;6.90;99.90;;;;;;5065386;28;19921;-73
2022/09/29 01:43:25;;;;;;;;;;;6.90;99.90;;;;;;5066615;28;20172;-73
2022/09/29 01:45:59;;;;;;;;;;;7.00;99.90;;;;;;5066143;28;19979;-74
2022/09/29 01:48:28;;;;;;;;;;;7.00;99.90;;;;;;5066664;28;19920;-72
2022/09/29 01:51:03;;;;;;;;;;;6.90;99.90;;;;;;5065964;28;19927;-73
2022/09/29 01:53:33;;;;;;;;;;;7.00;99.90;;;;;;5066575;28;19921;-72
2022/09/29 01:56:01;;;;;;;;;;;7.00;99.90;;;;;;5066201;28;20112;-73
2022/09/29 01:58:32;;;;;;;;;;;7.00;99.90;;;;;;5066185;28;19920;-72
2022/09/29 02:01:02;;;;;;;;;;;7.00;99.90;;;;;;5066327;28;19921;-73
2022/09/29 02:03:30;;;;;;;;;;;7.00;99.90;;;;;;5066332;28;20185;-72
2022/09/29 02:05:58;;;;;;;;;;;6.90;99.90;;;;;;5065708;28;19927;-73
2022/09/29 02:08:26;;;;;;;;;;;6.90;99.90;;;;;;5066320;28;20151;-73
2022/09/29 02:10:55;;;;;;;;;;;6.90;99.90;;;;;;5066163;28;19984;-74
2022/09/29 02:13:22;;;;;;;;;;;6.90;99.90;;;;;;5065060;28;19984;-72
2022/09/29 02:15:50;;;;;;;;;;;6.90;99.90;;;;;;5065801;28;20000;-74
2022/09/29 02:18:20;;;;;;;;;;;6.90;99.90;;;;;;5066076;28;19921;-72
2022/09/29 02:20:47;;;;;;;;;;;6.90;99.90;;;;;;5065885;28;19927;-73
2022/09/29 02:26:17;;;;;;;;;;;6.80;99.90;;;;;;5065520;28;19916;-72
2022/09/29 02:28:44;;;;;;;;;;;6.80;99.90;;;;;;5065996;28;19920;-75
2022/09/29 02:31:12;;;;;;;;;;;6.80;99.90;;;;;;5065185;28;20278;-73
2022/09/29 02:33:40;;;;;;;;;;;6.70;99.90;;;;;;5065737;28;19927;-72
2022/09/29 02:36:14;;;;;;;;;;;6.70;99.90;;;;;;5065159;28;20219;-74
2022/09/29 02:38:43;;;;;;;;;;;6.60;99.90;;;;;;5065771;28;19920;-72
2022/09/29 02:41:15;;;;;;;;;;;6.60;99.90;;;;;;5065308;28;19920;-72
2022/09/29 02:44:00;;;;;;;;;;;6.60;99.90;;;;;;5065243;28;20116;-75
2022/09/29 02:46:37;;;;;;;;;;;6.50;99.90;;;;;;5065187;28;19983;-74
2022/09/29 02:49:30;;;;;;;;;;;6.50;99.90;;;;;;5065445;28;20027;-73
2022/09/29 02:51:58;;;;;;;;;;;6.50;99.90;;;;;;5065218;28;19930;-75
2022/09/29 02:54:32;;;;;;;;;;;6.50;99.90;;;;;;5065285;28;19920;-73
2022/09/29 02:57:05;;;;;;;;;;;6.50;99.90;;;;;;5065038;28;19927;-73
2022/09/29 02:59:35;;;;;;;;;;;6.50;99.90;;;;;;5065185;28;19984;-73
2022/09/29 03:02:02;;;;;;;;;;;6.50;99.90;;;;;;5064810;28;19927;-73
2022/09/29 03:04:30;;;;;;;;;;;6.40;99.90;;;;;;5065148;28;19988;-73
2022/09/29 03:06:56;;;;;;;;;;;6.40;99.90;;;;;;5064717;28;20283;-73
2022/09/29 03:09:23;;;;;;;;;;;6.40;99.90;;;;;;5065081;28;19920;-73
2022/09/29 03:11:50;;;;;;;;;;;6.40;99.90;;;;;;5064984;28;19921;-73
2022/09/29 03:14:16;;;;;;;;;;;6.40;99.90;;;;;;5064598;28;19984;-73
2022/09/29 03:16:43;;;;;;;;;;;6.40;99.90;;;;;;5064588;28;19988;-74
2022/09/29 03:19:10;;;;;;;;;;;6.30;99.90;;;;;;5064641;28;20339;-74
2022/09/29 03:21:38;;;;;;;;;;;6.30;99.90;;;;;;5064743;28;19988;-74
2022/09/29 03:24:04;;;;;;;;;;;6.30;99.90;;;;;;5064349;28;19943;-74
2022/09/29 03:26:31;;;;;;;;;;;6.30;99.90;;;;;;5064450;28;20106;-74
2022/09/29 03:29:00;;;;;;;;;;;6.20;99.90;;;;;;5063607;28;20286;-74
2022/09/29 03:31:27;;;;;;;;;;;6.20;99.90;;;;;;5064620;28;20090;-74
2022/09/29 03:33:53;;;;;;;;;;;6.20;99.90;;;;;;5063954;28;20140;-74
2022/09/29 03:36:20;;;;;;;;;;;6.20;99.90;;;;;;5064125;28;19927;-74
2022/09/29 03:38:48;;;;;;;;;;;6.20;99.90;;;;;;5064284;28;20255;-74
2022/09/29 03:41:15;;;;;;;;;;;6.20;99.90;;;;;;5064110;28;19920;-74
2022/09/29 03:43:42;;;;;;;;;;;6.10;99.90;;;;;;5064108;28;19920;-74
2022/09/29 03:46:08;;;;;;;;;;;6.10;99.90;;;;;;5063746;28;19921;-74
2022/09/29 03:48:35;;;;;;;;;;;6.10;99.90;;;;;;5064354;28;20000;-74
2022/09/29 03:51:02;;;;;;;;;;;6.10;99.90;;;;;;5064213;28;19921;-74
2022/09/29 03:53:29;;;;;;;;;;;6.10;99.90;;;;;;5064270;28;19984;-74
2022/09/29 03:55:57;;;;;;;;;;;6.10;99.90;;;;;;5064007;28;19921;-74
2022/09/29 03:58:23;;;;;;;;;;;6.10;99.90;;;;;;5063858;28;20208;-74
2022/09/29 04:00:50;;;;;;;;;;;6.00;99.90;;;;;;5064238;28;19988;-74
2022/09/29 04:03:17;;;;;;;;;;;6.00;99.90;;;;;;5063709;28;19920;-74
2022/09/29 04:05:44;;;;;;;;;;;6.00;99.90;;;;;;5063382;28;19921;-74
2022/09/29 04:08:11;;;;;;;;;;;6.00;99.90;;;;;;5064028;28;19920;-74
2022/09/29 04:10:38;;;;;;;;;;;6.00;99.90;;;;;;5064888;28;19927;-74
2022/09/29 04:13:06;;;;;;;;;;;6.00;99.90;;;;;;5064889;28;19943;-74
2022/09/29 04:15:33;;;;;;;;;;;6.00;99.90;;;;;;5065042;28;19920;-74
2022/09/29 04:17:59;;;;;;;;;;;6.00;99.90;;;;;;5065158;28;19920;-74
2022/09/29 04:20:27;;;;;;;;;;;6.00;99.90;;;;;;5064897;28;19920;-74
2022/09/29 04:22:53;;;;;;;;;;;6.00;99.90;;;;;;5065067;28;19921;-74
2022/09/29 04:25:20;;;;;;;;;;;6.00;99.90;;;;;;5065570;28;19921;-74
2022/09/29 04:27:48;;;;;;;;;;;6.00;99.90;;;;;;5065042;28;19920;-74
2022/09/29 04:30:16;;;;;;;;;;;6.00;99.90;;;;;;5065929;28;19983;-74
2022/09/29 04:32:43;;;;;;;;;;;6.00;99.90;;;;;;5066001;28;19943;-74
2022/09/29 04:35:10;;;;;;;;;;;6.00;99.90;;;;;;5064303;28;19956;-74
2022/09/29 04:37:36;;;;;;;;;;;6.00;99.90;;;;;;5063999;28;19936;-74
2022/09/29 04:40:03;;;;;;;;;;;6.00;99.90;;;;;;5063383;28;20279;-73
2022/09/29 04:42:30;;;;;;;;;;;6.00;99.90;;;;;;5063650;28;19983;-74
2022/09/29 04:44:57;;;;;;;;;;;6.00;99.90;;;;;;5063488;28;19921;-74
2022/09/29 04:47:25;;;;;;;;;;;6.00;99.90;;;;;;5067558;28;20153;-74
2022/09/29 04:49:51;;;;;;;;;;;5.90;99.90;;;;;;5067659;28;19927;-73
2022/09/29 04:52:18;;;;;;;;;;;6.00;99.90;;;;;;5067747;28;19979;-73
2022/09/29 04:54:45;;;;;;;;;;;6.00;99.90;;;;;;5066982;28;20230;-74
2022/09/29 04:57:11;;;;;;;;;;;6.00;99.90;;;;;;5067554;28;19989;-73
2022/09/29 04:59:38;;;;;;;;;;;6.00;99.90;;;;;;5068071;28;19921;-73
2022/09/29 05:02:04;;;;;;;;;;;6.00;99.90;;;;;;5067327;28;20267;-74
2022/09/29 05:04:32;;;;;;;;;;;6.00;99.90;;;;;;5067348;28;19920;-74
2022/09/29 05:06:59;;;;;;;;;;;6.00;99.90;;;;;;5067252;28;20116;-74
2022/09/29 05:09:26;;;;;;;;;;;6.00;99.90;;;;;;5067533;28;19983;-73
2022/09/29 05:11:52;;;;;;;;;;;6.00;99.90;;;;;;5067467;28;19964;-76
2022/09/29 05:14:19;;;;;;;;;;;6.00;99.90;;;;;;5067060;28;19984;-73
2022/09/29 05:16:45;;;;;;;;;;;6.00;99.90;;;;;;5066828;28;19984;-74
2022/09/29 05:19:12;;;;;;;;;;;6.00;99.90;;;;;;5067312;28;19928;-74
2022/09/29 05:21:40;;;;;;;;;;;6.00;99.90;;;;;;5066923;28;19989;-75
2022/09/29 05:24:07;;;;;;;;;;;6.00;99.90;;;;;;5067035;28;19921;-73
2022/09/29 05:26:33;;;;;;;;;;;6.00;99.90;;;;;;5066847;28;19920;-72
2022/09/29 05:29:00;;;;;;;;;;;6.00;99.90;;;;;;5066840;28;19977;-74
2022/09/29 05:31:26;;;;;;;;;;;6.00;99.90;;;;;;5066948;28;19983;-74
2022/09/29 05:33:54;;;;;;;;;;;6.10;99.90;;;;;;5066151;28;20209;-75
2022/09/29 05:36:21;;;;;;;;;;;6.00;99.90;;;;;;5066588;28;19924;-74
2022/09/29 05:38:49;;;;;;;;;;;6.00;99.90;;;;;;5068178;28;19952;-74
2022/09/29 05:41:21;;;;;;;;;;;6.00;99.90;;;;;;5071153;28;20116;-74
2022/09/29 05:43:48;;;;;;;;;;;6.10;99.90;;;;;;5072251;28;19922;-73
2022/09/29 05:46:15;;;;;;;;;;;6.10;99.90;;;;;;5065634;28;19920;-74
2022/09/29 05:48:42;;;;;;;;;;;6.10;99.90;;;;;;5066077;28;19927;-74
2022/09/29 05:51:10;;;;;;;;;;;6.10;99.90;;;;;;5066076;28;19927;-74
2022/09/29 05:53:37;;;;;;;;;;;6.10;99.90;;;;;;5065843;28;19988;-73
2022/09/29 05:56:06;;;;;;;;;;;6.10;99.90;;;;;;5065292;28;19983;-74
2022/09/29 05:58:32;;;;;;;;;;;6.10;99.90;;;;;;5064851;28;19959;-74
2022/09/29 06:00:59;;;;;;;;;;;6.10;99.90;;;;;;5065714;28;19984;-74
2022/09/29 06:03:26;;;;;;;;;;;6.10;99.90;;;;;;5065253;28;19988;-75
2022/09/29 06:05:52;;;;;;;;;;;6.10;99.90;;;;;;5065136;28;19943;-75
2022/09/29 06:08:19;;;;;;;;;;;6.10;99.90;;;;;;5065250;28;19983;-75
2022/09/29 06:10:45;;;;;;;;;;;6.10;99.90;;;;;;5065025;28;19928;-75
2022/09/29 06:13:13;;;;;;;;;;;6.10;99.90;;;;;;5064968;28;19980;-75
2022/09/29 06:15:47;;;;;;;;;;;6.20;99.90;;;;;;5064507;28;19920;-75
2022/09/29 06:18:13;;;;;;;;;;;6.20;99.90;;;;;;5065902;28;19921;-75
2022/09/29 06:20:40;;;;;;;;;;;6.20;99.90;;;;;;5065690;28;19921;-75
2022/09/29 06:23:06;;;;;;;;;;;6.30;99.90;;;;;;5065857;28;19967;-75
2022/09/29 06:25:33;;;;;;;;;;;6.30;99.90;;;;;;5065390;28;19988;-75
2022/09/29 06:28:17;;;;;;;;;;;6.40;99.90;;;;;;5065432;28;19927;-75
2022/09/29 06:30:44;;;;;;;;;;;6.40;99.90;;;;;;5065838;28;19920;-74
2022/09/29 06:33:10;;;;;;;;;;;6.40;99.90;;;;;;5065798;28;20159;-74
2022/09/29 06:38:21;;;;;;;;;;;6.50;99.90;;;;;;5065646;28;19980;-74
2022/09/29 06:40:48;;;;;;;;;;;6.50;99.90;;;;;;5065758;28;19927;-74
2022/09/29 06:43:14;;;;;;;;;;;6.60;99.90;;;;;;5064894;28;20000;-74
2022/09/29 06:45:42;;;;;;;;;;;6.60;99.90;;;;;;5065226;28;19992;-74
2022/09/29 06:48:10;;;;;;;;;;;6.70;99.90;;;;;;5065164;28;20239;-74
2022/09/29 06:50:36;;;;;;;;;;;6.70;99.90;;;;;;5065447;28;19920;-75
2022/09/29 06:53:03;;;;;;;;;;;6.80;99.90;;;;;;5065072;28;20119;-74
2022/09/29 06:55:29;;;;;;;;;;;6.80;99.90;;;;;;5064867;28;19988;-74
2022/09/29 06:57:56;;;;;;;;;;;6.90;99.90;;;;;;5065328;28;19953;-74
2022/09/29 07:00:23;;;;;;;;;;;6.90;99.90;;;;;;5065034;28;19928;-74
2022/09/29 07:02:51;;;;;;;;;;;7.00;99.90;;;;;;5064770;28;20228;-74
2022/09/29 07:05:17;;;;;;;;;;;7.10;99.90;;;;;;5064940;28;19987;-74
2022/09/29 07:07:44;;;;;;;;;;;7.10;99.90;;;;;;5065029;28;19987;-75
2022/09/29 07:10:14;;;;;;;;;;;7.10;99.90;;;;;;5064709;28;19987;-75
2022/09/29 07:12:43;;;;;;;;;;;7.20;99.90;;;;;;5064391;28;19983;-71
2022/09/29 07:15:10;;;;;;;;;;;7.20;99.90;;;;;;5064271;28;19978;-75
2022/09/29 07:17:36;;;;;;;;;;;7.30;99.90;;;;;;5064299;28;19921;-75
2022/09/29 07:20:05;;;;;;;;;;;7.30;99.90;;;;;;5064132;28;19988;-75
2022/09/29 07:22:31;;;;;;;;;;;7.40;99.90;;;;;;5064445;28;19999;-75
2022/09/29 07:24:58;;;;;;;;;;;7.40;99.90;;;;;;5063852;28;19987;-77
2022/09/29 07:27:25;;;;;;;;;;;7.40;99.90;;;;;;5064225;28;20114;-74
2022/09/29 07:29:51;;;;;;;;;;;7.40;99.90;;;;;;5063736;28;20374;-74
2022/09/29 07:32:18;;;;;;;;;;;7.50;99.90;;;;;;5062521;28;19984;-72
2022/09/29 07:34:45;;;;;;;;;;;7.50;99.90;;;;;;5062979;28;19939;-74
2022/09/29 07:37:13;;;;;;;;;;;7.60;99.90;;;;;;5061243;28;19956;-75
2022/09/29 07:39:39;;;;;;;;;;;7.60;99.90;;;;;;5063311;28;19927;-74
2022/09/29 07:42:06;;;;;;;;;;;7.70;99.90;;;;;;5063400;28;19970;-74
2022/09/29 07:44:32;;;;;;;;;;;7.80;99.90;;;;;;5062193;28;19983;-74
2022/09/29 07:46:59;;;;;;;;;;;7.80;99.90;;;;;;5057800;28;20071;-74
2022/09/29 07:49:26;;;;;;;;;;;7.90;99.90;;;;;;5062123;28;19992;-74
2022/09/29 07:51:52;;;;;;;;;;;7.90;99.90;;;;;;5062856;28;20216;-74
2022/09/29 07:54:20;;;;;;;;;;;8.10;99.90;;;;;;5063520;28;19992;-74
2022/09/29 07:56:47;;;;;;;;;;;8.20;99.90;;;;;;5043585;28;20120;-74
2022/09/29 07:59:14;;;;;;;;;;;8.30;99.90;;;;;;5043658;28;19988;-74
2022/09/29 08:01:40;;;;;;;;;;;8.30;99.90;;;;;;5045945;28;19921;-74
2022/09/29 08:04:07;;;;;;;;;;;8.40;99.90;;;;;;5063201;28;19920;-74
2022/09/29 08:06:34;;;;;;;;;;;8.50;99.90;;;;;;5063326;28;19943;-74
2022/09/29 08:09:00;;;;;;;;;;;8.60;99.90;;;;;;5062823;28;19995;-74
2022/09/29 08:11:28;;;;;;;;;;;8.70;99.90;;;;;;5043174;28;20098;-74
2022/09/29 08:13:55;;;;;;;;;;;8.70;99.90;;;;;;5043114;28;19927;-74
2022/09/29 08:16:22;;;;;;;;;;;8.80;99.90;;;;;;5045026;28;19927;-74
2022/09/29 08:18:49;;;;;;;;;;;8.90;99.90;;;;;;5063033;28;19927;-74
2022/09/29 08:21:15;;;;;;;;;;;9.00;99.90;;;;;;5062537;28;19928;-74
2022/09/29 08:23:43;;;;;;;;;;;9.10;99.90;;;;;;5063219;28;20165;-74
2022/09/29 08:26:10;;;;;;;;;;;9.20;99.90;;;;;;5062702;28;19928;-74
2022/09/29 08:28:38;;;;;;;;;;;9.30;99.90;;;;;;5063224;28;19921;-74
2022/09/29 08:31:06;;;;;;;;;;;9.30;99.90;;;;;;5062879;28;19921;-74
2022/09/29 08:33:32;;;;;;;;;;;9.40;99.90;;;;;;5063145;28;19921;-74
2022/09/29 08:35:59;;;;;;;;;;;9.50;99.90;;;;;;5055508;28;19959;-74
2022/09/29 08:38:27;;;;;;;;;;;9.50;99.90;;;;;;5062969;28;19984;-74
2022/09/29 08:40:54;;;;;;;;;;;9.60;99.90;;;;;;5062847;28;19992;-75
2022/09/29 08:43:24;;;;;;;;;;;9.60;99.90;;;;;;5058242;28;20176;-74
2022/09/29 08:45:56;;;;;;;;;;;9.70;99.90;;;;;;5054356;28;19980;-74
2022/09/29 08:48:24;;;;;;;;;;;9.70;99.90;;;;;;5063035;28;19927;-75
2022/09/29 08:50:52;;;;;;;;;;;9.80;99.90;;;;;;5062699;28;19928;-75
2022/09/29 08:53:21;;;;;;;;;;;9.90;99.90;;;;;;5063170;28;19979;-75
2022/09/29 08:55:51;;;;;;;;;;;10.00;99.90;;;;;;5049093;28;20240;-74
2022/09/29 08:58:18;;;;;;;;;;;10.10;99.90;;;;;;5049635;28;19921;-75
2022/09/29 09:00:51;;;;;;;;;;;10.20;99.90;;;;;;5061039;28;20259;-75
2022/09/29 09:03:32;;;;;;;;;;;10.30;99.90;;;;;;5060436;28;19960;-75
2022/09/29 09:06:17;;;;;;;;;;;10.40;99.90;;;;;;5059990;28;19979;-74
2022/09/29 09:08:54;;;;;;;;;;;10.50;99.90;;;;;;5062260;28;19966;-74
2022/09/29 09:11:26;;;;;;;;;;;10.60;99.90;;;;;;5062736;28;19997;-74
2022/09/29 09:14:03;;;;;;;;;;;10.60;99.90;;;;;;5062376;28;19929;-73
2022/09/29 09:16:34;;;;;;;;;;;10.60;99.90;;;;;;5063058;28;19960;-75
2022/09/29 09:19:13;;;;;;;;;;;10.70;99.90;;;;;;5062619;28;19921;-74
2022/09/29 09:21:41;;;;;;;;;;;10.70;99.90;;;;;;5062719;28;20178;-74
2022/09/29 09:24:14;;;;;;;;;;;10.80;99.90;;;;;;5062491;28;19921;-74
2022/09/29 09:26:42;;;;;;;;;;;10.80;99.90;;;;;;5062600;28;19950;-75
2022/09/29 09:29:14;;;;;;;;;;;10.90;99.90;;;;;;5062833;28;19927;-75
2022/09/29 09:31:43;;;;;;;;;;;11.00;99.90;;;;;;5062348;28;19966;-75
2022/09/29 09:34:14;;;;;;;;;;;11.00;99.90;;;;;;5065664;28;19979;-74
2022/09/29 09:36:44;;;;;;;;;;;11.00;99.90;;;;;;5062421;28;19933;-74
2022/09/29 09:39:14;;;;;;;;;;;11.10;99.90;;;;;;5065974;28;19928;-75
2022/09/29 09:41:42;;;;;;;;;;;11.10;99.90;;;;;;5066223;28;19925;-74
2022/09/29 09:44:12;;;;;;;;;;;11.20;99.90;;;;;;5065586;28;19924;-75
2022/09/29 09:46:41;;;;;;;;;;;11.30;99.90;;;;;;5065368;28;19921;-74
2022/09/29 09:49:14;;;;;;;;;;;11.30;99.90;;;;;;5065775;28;19921;-74
2022/09/29 09:51:45;;;;;;;;;;;11.40;99.90;;;;;;5065258;28;19929;-74
2022/09/29 09:54:14;;;;;;;;;;;11.30;99.90;;;;;;5065783;28;19983;-74
2022/09/29 09:56:50;;;;;;;;;;;11.30;99.90;;;;;;5065536;28;19921;-75
2022/09/29 09:59:23;;;;;;;;;;;11.30;99.90;;;;;;5066120;28;20116;-76
2022/09/29 10:01:49;;;;;;;;;;;11.30;99.90;;;;;;5065439;28;19983;-75
2022/09/29 10:04:16;;;;;;;;;;;11.30;99.90;;;;;;5065398;28;19927;-75
2022/09/29 10:06:43;;;;;;;;;;;11.30;99.90;;;;;;5065069;28;19980;-75
2022/09/29 10:09:13;;;;;;;;;;;11.30;99.90;;;;;;5065608;28;19948;-75
2022/09/29 10:11:41;;;;;;;;;;;11.40;99.90;;;;;;5065383;28;19925;-75
2022/09/29 10:14:11;;;;;;;;;;;11.40;99.90;;;;;;5065371;28;19927;-75
2022/09/29 10:16:42;;;;;;;;;;;11.50;99.90;;;;;;5065136;28;19928;-75
2022/09/29 10:19:09;;;;;;;;;;;11.60;99.90;;;;;;5065439;28;20234;-75
2022/09/29 10:21:37;;;;;;;;;;;11.60;99.90;;;;;;5064499;28;20222;-75
2022/09/29 10:24:06;;;;;;;;;;;11.70;99.90;;;;;;5067163;28;20049;-75
2022/09/29 10:26:35;;;;;;;;;;;11.80;99.90;;;;;;5067748;28;19921;-75
2022/09/29 10:29:03;;;;;;;;;;;11.80;99.90;;;;;;5065229;28;19948;-76
2022/09/29 10:31:31;;;;;;;;;;;11.90;99.90;;;;;;5065494;28;19921;-76
2022/09/29 10:33:58;;;;;;;;;;;12.00;99.90;;;;;;5065020;28;19992;-76
2022/09/29 10:36:26;;;;;;;;;;;12.10;99.90;;;;;;5064460;28;19921;-75
2022/09/29 10:38:54;;;;;;;;;;;12.10;99.90;;;;;;5064824;28;19920;-76
2022/09/29 10:41:21;;;;;;;;;;;12.10;99.90;;;;;;5064635;28;19920;-76
2022/09/29 10:43:51;;;;;;;;;;;12.20;99.90;;;;;;5058696;28;19927;-76
2022/09/29 10:46:35;;;;;;;;;;;12.30;99.90;;;;;;5044571;28;19959;-76
2022/09/29 10:49:10;;;;;;;;;;;12.40;99.90;;;;;;5044715;28;19981;-75
2022/09/29 10:51:37;;;;;;;;;;;12.50;99.90;;;;;;5049850;28;20208;-75
2022/09/29 10:54:07;;;;;;;;;;;12.50;99.90;;;;;;5063485;28;20042;-75
2022/09/29 10:56:34;;;;;;;;;;;12.60;99.90;;;;;;5061558;28;20208;-75
2022/09/29 10:59:02;;;;;;;;;;;12.70;99.90;;;;;;5058672;28;19921;-75
2022/09/29 11:01:31;;;;;;;;;;;12.80;99.90;;;;;;5064300;28;20119;-75
2022/09/29 11:04:00;;;;;;;;;;;13.00;99.90;;;;;;5064223;28;19920;-74
2022/09/29 11:06:28;;;;;;;;;;;13.10;99.90;;;;;;5055510;28;19928;-74
2022/09/29 11:08:55;;;;;;;;;;;13.10;99.90;;;;;;5064308;28;19952;-74
2022/09/29 11:11:24;;;;;;;;;;;13.10;99.90;;;;;;5064023;28;20174;-74
2022/09/29 11:13:51;;;;;;;;;;;13.10;99.90;;;;;;5058909;28;19928;-74
2022/09/29 11:16:23;;;;;;;;;;;13.10;99.90;;;;;;5043827;28;19927;-74
2022/09/29 11:18:51;;;;;;;;;;;13.10;99.90;;;;;;5044330;28;19921;-75
2022/09/29 11:21:31;;;;;;;;;;;13.00;99.90;;;;;;5052032;28;19935;-74
2022/09/29 11:24:00;;;;;;;;;;;13.00;99.90;;;;;;5064122;28;19927;-75
2022/09/29 11:26:30;;;;;;;;;;;12.90;99.90;;;;;;5063538;28;20000;-74
2022/09/29 11:29:05;;;;;;;;;;;12.90;99.90;;;;;;5063989;28;19927;-75
2022/09/29 11:31:40;;;;;;;;;;;12.80;99.90;;;;;;5063652;28;19929;-75
2022/09/29 11:34:14;;;;;;;;;;;12.70;99.90;;;;;;5062887;28;19921;-75
2022/09/29 11:36:43;;;;;;;;;;;12.60;99.90;;;;;;5063644;28;19945;-75
2022/09/29 11:39:16;;;;;;;;;;;12.60;99.90;;;;;;5063544;28;20131;-74
2022/09/29 11:41:49;;;;;;;;;;;12.60;99.90;;;;;;5063738;28;19927;-75
2022/09/29 11:44:23;;;;;;;;;;;12.60;99.90;;;;;;5063719;28;19927;-75
2022/09/29 11:46:57;;;;;;;;;;;12.50;99.90;;;;;;5063657;28;19921;-75
2022/09/29 11:49:32;;;;;;;;;;;12.50;99.90;;;;;;5063487;28;19925;-75
2022/09/29 11:52:07;;;;;;;;;;;12.50;99.90;;;;;;5064082;28;19989;-75
2022/09/29 11:54:40;;;;;;;;;;;12.50;99.90;;;;;;5062311;28;20230;-76
2022/09/29 11:57:10;;;;;;;;;;;12.50;99.90;;;;;;5059525;28;19951;-76
2022/09/29 11:59:43;;;;;;;;;;;12.40;99.90;;;;;;5063112;28;20177;-75
2022/09/29 12:02:25;;;;;;;;;;;12.30;99.90;;;;;;5063522;28;19931;-75
2022/09/29 12:04:57;;;;;;;;;;;12.30;99.90;;;;;;5053110;28;20120;-76
2022/09/29 12:07:31;;;;;;;;;;;12.30;99.90;;;;;;5060087;28;19952;-74
2022/09/29 12:10:05;;;;;;;;;;;12.30;99.90;;;;;;5062892;28;19983;-74
2022/09/29 12:12:36;;;;;;;;;;;12.20;99.90;;;;;;5063082;28;19966;-76
2022/09/29 12:15:07;;;;;;;;;;;12.20;99.90;;;;;;5063082;28;19928;-73
2022/09/29 12:17:36;;;;;;;;;;;12.20;99.90;;;;;;5063792;28;20167;-75
2022/09/29 12:20:05;;;;;;;;;;;12.20;99.90;;;;;;5063490;28;20204;-74
2022/09/29 12:22:33;;;;;;;;;;;12.10;99.90;;;;;;5063718;28;19921;-75
2022/09/29 12:25:01;;;;;;;;;;;12.20;99.90;;;;;;5063644;28;20112;-75
2022/09/29 12:27:33;;;;;;;;;;;12.10;99.90;;;;;;5063867;28;20056;-75
2022/09/29 12:30:03;;;;;;;;;;;12.10;99.90;;;;;;5057977;28;20208;-72
2022/09/29 12:32:32;;;;;;;;;;;12.10;99.90;;;;;;5043724;28;19921;-74
2022/09/29 12:35:02;;;;;;;;;;;12.20;99.90;;;;;;5045738;28;19980;-74
2022/09/29 12:37:32;;;;;;;;;;;12.30;99.90;;;;;;5063384;28;19985;-74
2022/09/29 12:40:01;;;;;;;;;;;12.40;99.90;;;;;;5063158;28;19924;-74
2022/09/29 12:42:38;;;;;;;;;;;12.50;99.90;;;;;;5063488;28;19925;-74
2022/09/29 12:45:07;;;;;;;;;;;12.60;99.90;;;;;;5047038;28;19928;-73
2022/09/29 12:47:43;;;;;;;;;;;12.90;99.90;;;;;;5043729;28;19921;-73
2022/09/29 12:50:16;;;;;;;;;;;13.10;99.90;;;;;;5043505;28;19952;-74
2022/09/29 12:52:46;;;;;;;;;;;13.30;99.90;;;;;;5043231;28;19921;-74
2022/09/29 12:55:17;;;;;;;;;;;13.40;99.90;;;;;;5053150;28;19984;-74
2022/09/29 12:57:45;;;;;;;;;;;13.50;99.90;;;;;;5063722;28;19952;-74
2022/09/29 13:00:13;;;;;;;;;;;13.40;99.90;;;;;;5062997;28;20208;-74
2022/09/29 13:02:59;;;;;;;;;;;13.40;99.90;;;;;;5062774;28;20259;-74
2022/09/29 13:05:37;;;;;;;;;;;13.30;99.90;;;;;;5062187;28;19928;-74
2022/09/29 13:08:22;;;;;;;;;;;13.20;99.90;;;;;;5066135;28;19952;-73
2022/09/29 13:11:01;;;;;;;;;;;13.20;99.90;;;;;;5059472;28;19920;-74
2022/09/29 13:13:46;;;;;;;;;;;13.30;99.90;;;;;;5066026;28;19956;-74
2022/09/29 13:16:18;;;;;;;;;;;13.40;99.90;;;;;;5064692;28;19921;-74
2022/09/29 13:18:53;;;;;;;;;;;13.50;99.90;;;;;;5066006;28;19920;-74
2022/09/29 13:21:27;;;;;;;;;;;13.60;99.90;;;;;;5066179;28;20204;-74
2022/09/29 13:24:27;;;;;;;;;;;13.70;99.90;;;;;;5061518;28;19927;-74
2022/09/29 13:27:10;;;;;;;;;;;13.80;99.90;;;;;;5020432;28;19930;-75
2022/09/29 13:29:41;;;;;;;;;;;13.80;99.90;;;;;;5024520;28;19921;-75
2022/09/29 13:32:09;;;;;;;;;;;13.70;99.90;;;;;;5037156;28;20090;-75
2022/09/29 13:34:37;;;;;;;;;;;13.60;99.90;;;;;;5046186;28;19927;-74
2022/09/29 13:37:06;;;;;;;;;;;13.40;99.90;;;;;;5054144;28;19988;-75
2022/09/29 13:39:34;;;;;;;;;;;13.20;99.90;;;;;;5057298;28;19927;-71
2022/09/29 13:42:26;;;;;;;;;;;13.20;99.90;;;;;;5066003;28;19925;-71
2022/09/29 13:45:07;;;;;;;;;;;13.20;99.90;;;;;;5059996;28;19927;-72
2022/09/29 13:47:34;;;;;;;;;;;13.20;99.90;;;;;;5065701;28;19983;-74
2022/09/29 13:50:21;;;;;;;;;;;13.20;99.90;;;;;;5059840;28;19921;-72
2022/09/29 13:52:49;;;;;;;;;;;13.20;99.90;;;;;;5065607;28;20263;-72
2022/09/29 13:55:31;;;;;;;;;;;13.20;99.90;;;;;;5065193;28;19952;-72
2022/09/29 13:57:58;;;;;;;;;;;13.20;99.90;;;;;;5065527;28;19921;-72
2022/09/29 14:00:25;;;;;;;;;;;13.20;99.90;;;;;;5065841;28;19927;-72
2022/09/29 14:03:03;;;;;;;;;;;13.20;99.90;;;;;;5065378;28;19927;-72
2022/09/29 14:05:37;;;;;;;;;;;13.10;99.90;;;;;;5065206;28;19928;-71
2022/09/29 14:08:13;;;;;;;;;;;13.10;99.90;;;;;;5065726;28;19924;-72
2022/09/29 14:10:42;;;;;;;;;;;13.10;99.90;;;;;;5065697;28;19920;-75
2022/09/29 14:13:12;;;;;;;;;;;13.00;99.90;;;;;;5065571;28;19924;-71
2022/09/29 14:15:40;;;;;;;;;;;12.80;99.90;;;;;;5065186;28;19921;-71
2022/09/29 14:18:15;;;;;;;;;;;12.70;99.90;;;;;;5064195;28;19966;-72
2022/09/29 14:20:57;;;;;;;;;;;12.60;99.90;;;;;;5065672;28;20128;-71
2022/09/29 14:23:38;;;;;;;;;;;12.60;99.90;;;;;;5063527;28;19927;-71
2022/09/29 14:26:32;;;;;;;;;;;12.50;99.90;;;;;;5064376;28;19943;-72
2022/09/29 14:29:02;;;;;;;;;;;12.50;99.90;;;;;;5064826;28;19920;-72
2022/09/29 14:31:30;;;;;;;;;;;12.50;99.90;;;;;;5064632;28;19920;-72
2022/09/29 14:33:57;;;;;;;;;;;12.50;99.90;;;;;;5064745;28;19921;-72
2022/09/29 14:36:25;;;;;;;;;;;12.40;99.90;;;;;;5065029;28;19921;-71
2022/09/29 14:38:54;;;;;;;;;;;12.40;99.90;;;;;;5064872;28;20156;-72
2022/09/29 14:41:32;;;;;;;;;;;12.40;99.90;;;;;;5065105;28;20109;-71
2022/09/29 14:44:01;;;;;;;;;;;12.40;99.90;;;;;;5064798;28;19975;-71
2022/09/29 14:52:22;;;;;;;;;;;12.30;99.90;;;;;;5065002;28;19955;-71